sensor_id;sensor_type;location;lat;lon;timestamp;P1;durP1;ratioP1;P2;durP2;ratioP2
28481;SDS011;15703;49.588;6.260;2023-05-10T00:01:43;7.67;;;5.77;;
28481;SDS011;15703;49.588;6.260;2023-05-10T00:04:05;5.40;;;4.90;;
28481;SDS011;15703;49.588;6.260;2023-05-10T00:06:28;6.90;;;5.03;;
28481;SDS011;15703;49.588;6.260;2023-05-10T00:08:50;6.63;;;5.93;;
28481;SDS011;15703;49.588;6.260;2023-05-10T00:11:12;6.40;;;5.70;;
28481;SDS011;15703;49.588;6.260;2023-05-10T00:13:35;6.83;;;6.13;;
28481;SDS011;15703;49.588;6.260;2023-05-10T00:15:57;5.90;;;5.40;;
28481;SDS011;15703;49.588;6.260;2023-05-10T00:18:20;6.90;;;6.30;;
28481;SDS011;15703;49.588;6.260;2023-05-10T00:20:42;7.87;;;6.23;;
28481;SDS011;15703;49.588;6.260;2023-05-10T00:23:07;7.13;;;6.23;;
28481;SDS011;15703;49.588;6.260;2023-05-10T00:25:32;8.47;;;6.10;;
28481;SDS011;15703;49.588;6.260;2023-05-10T00:27:54;7.30;;;6.60;;
28481;SDS011;15703;49.588;6.260;2023-05-10T00:30:18;6.73;;;6.03;;
28481;SDS011;15703;49.588;6.260;2023-05-10T00:32:40;8.27;;;7.20;;
28481;SDS011;15703;49.588;6.260;2023-05-10T00:35:03;8.00;;;6.60;;
28481;SDS011;15703;49.588;6.260;2023-05-10T00:37:26;7.97;;;6.70;;
28481;SDS011;15703;49.588;6.260;2023-05-10T00:39:49;9.80;;;7.20;;
28481;SDS011;15703;49.588;6.260;2023-05-10T00:42:11;8.63;;;6.40;;
28481;SDS011;15703;49.588;6.260;2023-05-10T00:44:34;12.77;;;7.70;;
28481;SDS011;15703;49.588;6.260;2023-05-10T00:46:57;9.10;;;8.13;;
28481;SDS011;15703;49.588;6.260;2023-05-10T00:49:20;8.90;;;8.00;;
28481;SDS011;15703;49.588;6.260;2023-05-10T00:51:43;9.23;;;7.80;;
28481;SDS011;15703;49.588;6.260;2023-05-10T00:54:06;11.93;;;8.30;;
28481;SDS011;15703;49.588;6.260;2023-05-10T00:56:28;10.17;;;8.30;;
28481;SDS011;15703;49.588;6.260;2023-05-10T00:58:51;9.60;;;7.37;;
28481;SDS011;15703;49.588;6.260;2023-05-10T01:01:13;8.90;;;7.63;;
28481;SDS011;15703;49.588;6.260;2023-05-10T01:03:36;8.63;;;7.80;;
28481;SDS011;15703;49.588;6.260;2023-05-10T01:05:59;10.40;;;7.70;;
28481;SDS011;15703;49.588;6.260;2023-05-10T01:08:21;8.73;;;7.83;;
28481;SDS011;15703;49.588;6.260;2023-05-10T01:10:44;12.17;;;8.77;;
28481;SDS011;15703;49.588;6.260;2023-05-10T01:13:06;8.40;;;7.57;;
28481;SDS011;15703;49.588;6.260;2023-05-10T01:15:29;9.60;;;7.83;;
28481;SDS011;15703;49.588;6.260;2023-05-10T01:17:52;9.50;;;8.50;;
28481;SDS011;15703;49.588;6.260;2023-05-10T01:20:14;11.60;;;9.07;;
28481;SDS011;15703;49.588;6.260;2023-05-10T01:32:49;12.13;;;8.60;;
28481;SDS011;15703;49.588;6.260;2023-05-10T01:35:20;10.17;;;8.67;;
28481;SDS011;15703;49.588;6.260;2023-05-10T01:40:39;9.40;;;8.23;;
28481;SDS011;15703;49.588;6.260;2023-05-10T01:43:02;12.53;;;8.37;;
28481;SDS011;15703;49.588;6.260;2023-05-10T01:45:30;10.23;;;9.03;;
28481;SDS011;15703;49.588;6.260;2023-05-10T01:48:06;13.03;;;8.87;;
28481;SDS011;15703;49.588;6.260;2023-05-10T01:50:30;10.20;;;7.83;;
28481;SDS011;15703;49.588;6.260;2023-05-10T01:52:55;15.17;;;8.80;;
28481;SDS011;15703;49.588;6.260;2023-05-10T01:55:18;8.93;;;7.87;;
28481;SDS011;15703;49.588;6.260;2023-05-10T01:57:44;8.83;;;7.93;;
28481;SDS011;15703;49.588;6.260;2023-05-10T02:00:09;11.13;;;8.57;;
28481;SDS011;15703;49.588;6.260;2023-05-10T02:02:36;11.20;;;8.70;;
28481;SDS011;15703;49.588;6.260;2023-05-10T02:04:59;10.57;;;8.87;;
28481;SDS011;15703;49.588;6.260;2023-05-10T02:07:22;9.57;;;6.43;;
28481;SDS011;15703;49.588;6.260;2023-05-10T02:09:45;4.93;;;4.40;;
28481;SDS011;15703;49.588;6.260;2023-05-10T02:12:09;5.00;;;4.60;;
28481;SDS011;15703;49.588;6.260;2023-05-10T02:14:32;5.77;;;5.03;;
28481;SDS011;15703;49.588;6.260;2023-05-10T02:16:56;4.37;;;3.93;;
28481;SDS011;15703;49.588;6.260;2023-05-10T02:19:19;4.77;;;4.37;;
28481;SDS011;15703;49.588;6.260;2023-05-10T02:21:42;5.40;;;4.70;;
28481;SDS011;15703;49.588;6.260;2023-05-10T02:24:05;6.47;;;4.87;;
28481;SDS011;15703;49.588;6.260;2023-05-10T02:26:53;4.53;;;4.13;;
28481;SDS011;15703;49.588;6.260;2023-05-10T02:29:23;5.63;;;4.37;;
28481;SDS011;15703;49.588;6.260;2023-05-10T02:31:48;5.10;;;4.60;;
28481;SDS011;15703;49.588;6.260;2023-05-10T02:34:12;5.43;;;4.93;;
28481;SDS011;15703;49.588;6.260;2023-05-10T02:36:35;4.77;;;4.37;;
28481;SDS011;15703;49.588;6.260;2023-05-10T02:38:58;5.20;;;4.27;;
28481;SDS011;15703;49.588;6.260;2023-05-10T02:41:21;6.17;;;3.90;;
28481;SDS011;15703;49.588;6.260;2023-05-10T02:43:44;5.20;;;4.20;;
28481;SDS011;15703;49.588;6.260;2023-05-10T02:46:08;5.60;;;4.37;;
28481;SDS011;15703;49.588;6.260;2023-05-10T02:48:30;4.60;;;4.23;;
28481;SDS011;15703;49.588;6.260;2023-05-10T02:50:53;4.63;;;3.80;;
28481;SDS011;15703;49.588;6.260;2023-05-10T02:53:22;8.80;;;4.07;;
28481;SDS011;15703;49.588;6.260;2023-05-10T02:55:45;4.83;;;3.73;;
28481;SDS011;15703;49.588;6.260;2023-05-10T02:58:11;5.87;;;4.17;;
28481;SDS011;15703;49.588;6.260;2023-05-10T03:00:34;4.73;;;3.83;;
28481;SDS011;15703;49.588;6.260;2023-05-10T03:02:57;4.13;;;3.70;;
28481;SDS011;15703;49.588;6.260;2023-05-10T03:05:21;4.90;;;3.97;;
28481;SDS011;15703;49.588;6.260;2023-05-10T03:07:44;4.40;;;2.57;;
28481;SDS011;15703;49.588;6.260;2023-05-10T03:10:07;3.30;;;3.00;;
28481;SDS011;15703;49.588;6.260;2023-05-10T03:17:30;3.50;;;3.20;;
28481;SDS011;15703;49.588;6.260;2023-05-10T03:19:56;5.43;;;2.93;;
28481;SDS011;15703;49.588;6.260;2023-05-10T03:22:28;3.27;;;2.97;;
28481;SDS011;15703;49.588;6.260;2023-05-10T03:24:55;4.20;;;2.80;;
28481;SDS011;15703;49.588;6.260;2023-05-10T03:27:22;5.63;;;2.57;;
28481;SDS011;15703;49.588;6.260;2023-05-10T03:29:44;3.20;;;2.50;;
28481;SDS011;15703;49.588;6.260;2023-05-10T03:32:07;3.60;;;2.63;;
28481;SDS011;15703;49.588;6.260;2023-05-10T03:34:30;3.07;;;2.83;;
28481;SDS011;15703;49.588;6.260;2023-05-10T03:36:52;4.33;;;2.83;;
28481;SDS011;15703;49.588;6.260;2023-05-10T03:39:15;3.07;;;2.77;;
28481;SDS011;15703;49.588;6.260;2023-05-10T03:41:43;3.17;;;2.77;;
28481;SDS011;15703;49.588;6.260;2023-05-10T03:44:05;4.80;;;2.20;;
28481;SDS011;15703;49.588;6.260;2023-05-10T03:46:27;2.27;;;2.13;;
28481;SDS011;15703;49.588;6.260;2023-05-10T03:48:50;4.93;;;2.50;;
28481;SDS011;15703;49.588;6.260;2023-05-10T03:51:12;3.50;;;2.27;;
28481;SDS011;15703;49.588;6.260;2023-05-10T03:53:34;4.20;;;2.70;;
28481;SDS011;15703;49.588;6.260;2023-05-10T03:55:57;2.77;;;2.57;;
28481;SDS011;15703;49.588;6.260;2023-05-10T03:58:20;3.13;;;2.30;;
28481;SDS011;15703;49.588;6.260;2023-05-10T04:00:43;2.40;;;2.20;;
28481;SDS011;15703;49.588;6.260;2023-05-10T04:03:07;2.57;;;2.37;;
28481;SDS011;15703;49.588;6.260;2023-05-10T04:05:30;2.77;;;2.10;;
28481;SDS011;15703;49.588;6.260;2023-05-10T04:07:53;2.83;;;2.20;;
28481;SDS011;15703;49.588;6.260;2023-05-10T04:10:15;2.40;;;2.20;;
28481;SDS011;15703;49.588;6.260;2023-05-10T04:12:39;2.57;;;2.37;;
28481;SDS011;15703;49.588;6.260;2023-05-10T04:15:01;5.10;;;2.60;;
28481;SDS011;15703;49.588;6.260;2023-05-10T04:17:23;3.60;;;2.20;;
28481;SDS011;15703;49.588;6.260;2023-05-10T04:19:46;2.43;;;2.23;;
28481;SDS011;15703;49.588;6.260;2023-05-10T04:22:08;2.90;;;2.63;;
28481;SDS011;15703;49.588;6.260;2023-05-10T04:24:30;3.23;;;2.70;;
28481;SDS011;15703;49.588;6.260;2023-05-10T04:26:53;2.53;;;2.33;;
28481;SDS011;15703;49.588;6.260;2023-05-10T04:29:18;3.27;;;2.97;;
28481;SDS011;15703;49.588;6.260;2023-05-10T04:31:40;2.87;;;2.60;;
28481;SDS011;15703;49.588;6.260;2023-05-10T04:34:02;3.97;;;3.20;;
28481;SDS011;15703;49.588;6.260;2023-05-10T04:36:25;3.77;;;2.80;;
28481;SDS011;15703;49.588;6.260;2023-05-10T04:38:47;2.80;;;2.50;;
28481;SDS011;15703;49.588;6.260;2023-05-10T04:41:10;3.33;;;2.80;;
28481;SDS011;15703;49.588;6.260;2023-05-10T04:43:32;4.23;;;2.87;;
28481;SDS011;15703;49.588;6.260;2023-05-10T04:45:56;3.27;;;2.60;;
28481;SDS011;15703;49.588;6.260;2023-05-10T04:48:18;3.10;;;2.80;;
28481;SDS011;15703;49.588;6.260;2023-05-10T04:50:41;4.27;;;2.60;;
28481;SDS011;15703;49.588;6.260;2023-05-10T04:53:03;2.93;;;2.50;;
28481;SDS011;15703;49.588;6.260;2023-05-10T04:55:26;3.13;;;2.87;;
28481;SDS011;15703;49.588;6.260;2023-05-10T04:57:48;3.27;;;2.60;;
28481;SDS011;15703;49.588;6.260;2023-05-10T05:00:11;2.60;;;2.40;;
28481;SDS011;15703;49.588;6.260;2023-05-10T05:02:33;3.60;;;2.47;;
28481;SDS011;15703;49.588;6.260;2023-05-10T05:04:59;2.60;;;2.40;;
28481;SDS011;15703;49.588;6.260;2023-05-10T05:08:00;2.20;;;2.10;;
28481;SDS011;15703;49.588;6.260;2023-05-10T05:10:23;3.00;;;2.40;;
28481;SDS011;15703;49.588;6.260;2023-05-10T05:12:46;2.20;;;2.00;;
28481;SDS011;15703;49.588;6.260;2023-05-10T05:15:09;2.53;;;2.33;;
28481;SDS011;15703;49.588;6.260;2023-05-10T05:17:32;3.33;;;1.90;;
28481;SDS011;15703;49.588;6.260;2023-05-10T05:19:54;2.33;;;1.90;;
28481;SDS011;15703;49.588;6.260;2023-05-10T05:22:16;2.60;;;1.70;;
28481;SDS011;15703;49.588;6.260;2023-05-10T05:24:40;1.70;;;1.60;;
28481;SDS011;15703;49.588;6.260;2023-05-10T05:27:02;2.10;;;1.60;;
28481;SDS011;15703;49.588;6.260;2023-05-10T05:29:25;3.77;;;1.57;;
28481;SDS011;15703;49.588;6.260;2023-05-10T05:31:47;1.50;;;1.40;;
28481;SDS011;15703;49.588;6.260;2023-05-10T05:34:10;1.73;;;1.50;;
28481;SDS011;15703;49.588;6.260;2023-05-10T05:36:32;1.50;;;1.40;;
28481;SDS011;15703;49.588;6.260;2023-05-10T05:38:59;2.97;;;1.33;;
28481;SDS011;15703;49.588;6.260;2023-05-10T05:41:22;1.20;;;1.20;;
28481;SDS011;15703;49.588;6.260;2023-05-10T05:43:45;1.43;;;1.30;;
28481;SDS011;15703;49.588;6.260;2023-05-10T05:46:10;1.50;;;1.40;;
28481;SDS011;15703;49.588;6.260;2023-05-10T05:48:33;1.60;;;1.47;;
28481;SDS011;15703;49.588;6.260;2023-05-10T05:50:55;1.63;;;1.50;;
28481;SDS011;15703;49.588;6.260;2023-05-10T05:53:17;1.50;;;1.40;;
28481;SDS011;15703;49.588;6.260;2023-05-10T05:55:40;2.13;;;0.93;;
28481;SDS011;15703;49.588;6.260;2023-05-10T05:58:02;1.30;;;1.20;;
28481;SDS011;15703;49.588;6.260;2023-05-10T06:00:25;1.60;;;1.10;;
28481;SDS011;15703;49.588;6.260;2023-05-10T06:02:47;1.90;;;1.00;;
28481;SDS011;15703;49.588;6.260;2023-05-10T06:05:10;1.77;;;1.10;;
28481;SDS011;15703;49.588;6.260;2023-05-10T06:07:32;1.37;;;1.10;;
28481;SDS011;15703;49.588;6.260;2023-05-10T06:09:54;1.00;;;1.00;;
28481;SDS011;15703;49.588;6.260;2023-05-10T06:12:16;1.80;;;1.20;;
28481;SDS011;15703;49.588;6.260;2023-05-10T06:14:39;1.00;;;1.00;;
28481;SDS011;15703;49.588;6.260;2023-05-10T06:17:10;0.90;;;0.90;;
28481;SDS011;15703;49.588;6.260;2023-05-10T06:19:32;1.00;;;1.00;;
28481;SDS011;15703;49.588;6.260;2023-05-10T06:21:55;2.57;;;1.20;;
28481;SDS011;15703;49.588;6.260;2023-05-10T06:24:17;1.23;;;1.07;;
28481;SDS011;15703;49.588;6.260;2023-05-10T06:26:39;1.00;;;1.00;;
28481;SDS011;15703;49.588;6.260;2023-05-10T06:29:02;1.00;;;1.00;;
28481;SDS011;15703;49.588;6.260;2023-05-10T06:31:24;1.60;;;1.10;;
28481;SDS011;15703;49.588;6.260;2023-05-10T06:33:47;1.30;;;1.20;;
28481;SDS011;15703;49.588;6.260;2023-05-10T06:36:09;2.30;;;1.10;;
28481;SDS011;15703;49.588;6.260;2023-05-10T06:38:34;1.63;;;1.20;;
28481;SDS011;15703;49.588;6.260;2023-05-10T06:40:57;2.53;;;1.23;;
28481;SDS011;15703;49.588;6.260;2023-05-10T06:43:19;2.03;;;1.23;;
28481;SDS011;15703;49.588;6.260;2023-05-10T06:45:42;1.37;;;1.10;;
28481;SDS011;15703;49.588;6.260;2023-05-10T06:48:04;2.43;;;1.77;;
28481;SDS011;15703;49.588;6.260;2023-05-10T06:50:27;1.90;;;1.20;;
28481;SDS011;15703;49.588;6.260;2023-05-10T06:52:49;3.53;;;1.30;;
28481;SDS011;15703;49.588;6.260;2023-05-10T06:55:13;2.13;;;1.43;;
28481;SDS011;15703;49.588;6.260;2023-05-10T06:57:36;1.60;;;1.40;;
28481;SDS011;15703;49.588;6.260;2023-05-10T06:59:58;2.07;;;1.40;;
28481;SDS011;15703;49.588;6.260;2023-05-10T07:02:21;3.03;;;1.33;;
28481;SDS011;15703;49.588;6.260;2023-05-10T07:04:44;3.03;;;1.10;;
28481;SDS011;15703;49.588;6.260;2023-05-10T07:07:07;2.83;;;1.30;;
28481;SDS011;15703;49.588;6.260;2023-05-10T07:09:29;1.00;;;1.00;;
28481;SDS011;15703;49.588;6.260;2023-05-10T07:11:52;3.13;;;1.48;;
28481;SDS011;15703;49.588;6.260;2023-05-10T07:14:14;2.53;;;1.40;;
28481;SDS011;15703;49.588;6.260;2023-05-10T07:16:37;1.45;;;1.35;;
28481;SDS011;15703;49.588;6.260;2023-05-10T07:19:21;2.15;;;1.33;;
28481;SDS011;15703;49.588;6.260;2023-05-10T07:21:48;1.10;;;1.10;;
28481;SDS011;15703;49.588;6.260;2023-05-10T07:24:11;1.75;;;1.30;;
28481;SDS011;15703;49.588;6.260;2023-05-10T07:26:34;0.90;;;0.90;;
28481;SDS011;15703;49.588;6.260;2023-05-10T07:28:57;1.20;;;1.10;;
28481;SDS011;15703;49.588;6.260;2023-05-10T07:31:45;4.63;;;1.00;;
28481;SDS011;15703;49.588;6.260;2023-05-10T07:34:15;1.52;;;1.00;;
28481;SDS011;15703;49.588;6.260;2023-05-10T07:36:37;1.40;;;1.00;;
28481;SDS011;15703;49.588;6.260;2023-05-10T07:38:59;1.10;;;1.10;;
28481;SDS011;15703;49.588;6.260;2023-05-10T07:41:22;2.05;;;1.10;;
28481;SDS011;15703;49.588;6.260;2023-05-10T07:43:44;1.47;;;1.10;;
28481;SDS011;15703;49.588;6.260;2023-05-10T07:46:07;1.73;;;1.20;;
28481;SDS011;15703;49.588;6.260;2023-05-10T07:48:31;3.57;;;1.47;;
28481;SDS011;15703;49.588;6.260;2023-05-10T07:50:53;2.47;;;1.40;;
28481;SDS011;15703;49.588;6.260;2023-05-10T07:53:16;1.60;;;1.50;;
28481;SDS011;15703;49.588;6.260;2023-05-10T07:55:39;2.83;;;1.57;;
28481;SDS011;15703;49.588;6.260;2023-05-10T07:58:02;1.93;;;1.70;;
28481;SDS011;15703;49.588;6.260;2023-05-10T08:00:24;2.60;;;1.60;;
28481;SDS011;15703;49.588;6.260;2023-05-10T08:02:47;3.87;;;1.60;;
28481;SDS011;15703;49.588;6.260;2023-05-10T08:05:09;4.43;;;2.00;;
28481;SDS011;15703;49.588;6.260;2023-05-10T08:07:32;1.77;;;1.57;;
28481;SDS011;15703;49.588;6.260;2023-05-10T08:09:54;4.83;;;1.77;;
28481;SDS011;15703;49.588;6.260;2023-05-10T08:12:17;2.60;;;1.88;;
28481;SDS011;15703;49.588;6.260;2023-05-10T08:14:39;4.93;;;2.55;;
28481;SDS011;15703;49.588;6.260;2023-05-10T08:17:02;2.17;;;1.50;;
28481;SDS011;15703;49.588;6.260;2023-05-10T08:19:25;2.45;;;2.00;;
28481;SDS011;15703;49.588;6.260;2023-05-10T08:21:50;3.42;;;1.65;;
28481;SDS011;15703;49.588;6.260;2023-05-10T08:24:13;4.15;;;2.00;;
28481;SDS011;15703;49.588;6.260;2023-05-10T08:26:35;3.38;;;2.30;;
28481;SDS011;15703;49.588;6.260;2023-05-10T08:28:57;3.20;;;1.67;;
28481;SDS011;15703;49.588;6.260;2023-05-10T08:31:20;1.70;;;1.60;;
28481;SDS011;15703;49.588;6.260;2023-05-10T08:33:42;5.82;;;1.90;;
28481;SDS011;15703;49.588;6.260;2023-05-10T08:36:05;2.80;;;2.00;;
28481;SDS011;15703;49.588;6.260;2023-05-10T08:38:27;4.10;;;2.20;;
28481;SDS011;15703;49.588;6.260;2023-05-10T08:40:50;6.60;;;2.13;;
28481;SDS011;15703;49.588;6.260;2023-05-10T08:43:18;7.03;;;2.40;;
28481;SDS011;15703;49.588;6.260;2023-05-10T08:45:41;6.63;;;2.03;;
28481;SDS011;15703;49.588;6.260;2023-05-10T08:48:07;4.60;;;2.60;;
28481;SDS011;15703;49.588;6.260;2023-05-10T08:50:30;6.17;;;2.30;;
28481;SDS011;15703;49.588;6.260;2023-05-10T08:52:54;5.13;;;2.03;;
28481;SDS011;15703;49.588;6.260;2023-05-10T08:55:17;4.93;;;1.90;;
28481;SDS011;15703;49.588;6.260;2023-05-10T08:58:10;9.45;;;2.03;;
28481;SDS011;15703;49.588;6.260;2023-05-10T09:01:32;6.38;;;2.15;;
28481;SDS011;15703;49.588;6.260;2023-05-10T09:04:07;5.55;;;2.15;;
28481;SDS011;15703;49.588;6.260;2023-05-10T09:06:42;4.68;;;1.90;;
28481;SDS011;15703;49.588;6.260;2023-05-10T09:09:20;4.20;;;1.70;;
28481;SDS011;15703;49.588;6.260;2023-05-10T09:12:23;8.10;;;1.60;;
28481;SDS011;15703;49.588;6.260;2023-05-10T09:14:47;3.75;;;1.52;;
28481;SDS011;15703;49.588;6.260;2023-05-10T09:18:20;4.82;;;1.55;;
28481;SDS011;15703;49.588;6.260;2023-05-10T09:43:37;6.45;;;1.27;;
28481;SDS011;15703;49.588;6.260;2023-05-10T09:46:15;3.60;;;1.42;;
28481;SDS011;15703;49.588;6.260;2023-05-10T09:49:14;4.82;;;1.13;;
28481;SDS011;15703;49.588;6.260;2023-05-10T09:56:01;6.53;;;1.23;;
28481;SDS011;15703;49.588;6.260;2023-05-10T09:59:01;3.53;;;1.40;;
28481;SDS011;15703;49.588;6.260;2023-05-10T10:13:06;7.40;;;1.70;;
28481;SDS011;15703;49.588;6.260;2023-05-10T10:15:09;2.42;;;1.10;;
28481;SDS011;15703;49.588;6.260;2023-05-10T10:18:16;3.80;;;1.10;;
28481;SDS011;15703;49.588;6.260;2023-05-10T10:39:19;6.15;;;1.20;;
28481;SDS011;15703;49.588;6.260;2023-05-10T10:42:07;4.78;;;1.48;;
28481;SDS011;15703;49.588;6.260;2023-05-10T10:45:18;3.10;;;1.50;;
28481;SDS011;15703;49.588;6.260;2023-05-10T10:50:47;4.32;;;1.20;;
28481;SDS011;15703;49.588;6.260;2023-05-10T10:53:53;4.45;;;1.10;;
28481;SDS011;15703;49.588;6.260;2023-05-10T10:56:38;3.15;;;1.20;;
28481;SDS011;15703;49.588;6.260;2023-05-10T10:59:33;2.42;;;1.05;;
28481;SDS011;15703;49.588;6.260;2023-05-10T11:05:43;3.58;;;1.13;;
28481;SDS011;15703;49.588;6.260;2023-05-10T11:14:08;3.38;;;0.98;;
28481;SDS011;15703;49.588;6.260;2023-05-10T11:16:43;2.53;;;1.02;;
28481;SDS011;15703;49.588;6.260;2023-05-10T11:19:10;3.10;;;1.23;;
28481;SDS011;15703;49.588;6.260;2023-05-10T11:22:12;2.30;;;1.00;;
28481;SDS011;15703;49.588;6.260;2023-05-10T11:28:18;1.35;;;0.80;;
28481;SDS011;15703;49.588;6.260;2023-05-10T11:30:43;4.20;;;0.95;;
28481;SDS011;15703;49.588;6.260;2023-05-10T11:33:06;2.25;;;0.90;;
28481;SDS011;15703;49.588;6.260;2023-05-10T11:38:38;5.15;;;0.95;;
28481;SDS011;15703;49.588;6.260;2023-05-10T11:41:01;2.60;;;1.00;;
28481;SDS011;15703;49.588;6.260;2023-05-10T11:54:20;2.92;;;0.63;;
28481;SDS011;15703;49.588;6.260;2023-05-10T11:57:17;1.10;;;0.55;;
28481;SDS011;15703;49.588;6.260;2023-05-10T12:00:08;1.98;;;1.00;;
28481;SDS011;15703;49.588;6.260;2023-05-10T12:02:31;3.58;;;0.73;;
28481;SDS011;15703;49.588;6.260;2023-05-10T12:13:12;2.65;;;0.75;;
28481;SDS011;15703;49.588;6.260;2023-05-10T12:15:38;0.98;;;0.50;;
28481;SDS011;15703;49.588;6.260;2023-05-10T12:21:11;2.00;;;0.60;;
28481;SDS011;15703;49.588;6.260;2023-05-10T12:24:02;2.55;;;1.02;;
28481;SDS011;15703;49.588;6.260;2023-05-10T13:12:48;2.78;;;0.73;;
28481;SDS011;15703;49.588;6.260;2023-05-10T13:15:11;1.83;;;0.57;;
28481;SDS011;15703;49.588;6.260;2023-05-10T13:17:33;2.85;;;0.70;;
28481;SDS011;15703;49.588;6.260;2023-05-10T13:19:56;3.60;;;1.42;;
28481;SDS011;15703;49.588;6.260;2023-05-10T13:22:19;1.98;;;0.40;;
28481;SDS011;15703;49.588;6.260;2023-05-10T13:53:43;1.33;;;0.80;;
28481;SDS011;15703;49.588;6.260;2023-05-10T13:56:12;0.93;;;0.57;;
28481;SDS011;15703;49.588;6.260;2023-05-10T13:58:59;3.25;;;0.63;;
28481;SDS011;15703;49.588;6.260;2023-05-10T14:09:17;1.52;;;0.40;;
28481;SDS011;15703;49.588;6.260;2023-05-10T14:19:05;1.10;;;0.65;;
28481;SDS011;15703;49.588;6.260;2023-05-10T14:25:46;1.27;;;0.50;;
28481;SDS011;15703;49.588;6.260;2023-05-10T14:28:09;2.40;;;0.77;;
28481;SDS011;15703;49.588;6.260;2023-05-10T14:30:39;3.15;;;0.80;;
28481;SDS011;15703;49.588;6.260;2023-05-10T14:40:27;1.55;;;0.85;;
28481;SDS011;15703;49.588;6.260;2023-05-10T14:42:59;2.00;;;1.13;;
28481;SDS011;15703;49.588;6.260;2023-05-10T15:01:02;1.38;;;0.60;;
28481;SDS011;15703;49.588;6.260;2023-05-10T15:03:51;0.70;;;0.40;;
28481;SDS011;15703;49.588;6.260;2023-05-10T15:06:43;0.77;;;0.40;;
28481;SDS011;15703;49.588;6.260;2023-05-10T15:09:19;0.63;;;0.32;;
28481;SDS011;15703;49.588;6.260;2023-05-10T15:16:53;0.77;;;0.50;;
28481;SDS011;15703;49.588;6.260;2023-05-10T15:22:22;1.58;;;0.70;;
28481;SDS011;15703;49.588;6.260;2023-05-10T15:24:46;2.75;;;0.77;;
28481;SDS011;15703;49.588;6.260;2023-05-10T15:27:42;1.38;;;0.40;;
28481;SDS011;15703;49.588;6.260;2023-05-10T15:37:43;0.85;;;0.60;;
28481;SDS011;15703;49.588;6.260;2023-05-10T15:40:23;0.40;;;0.40;;
28481;SDS011;15703;49.588;6.260;2023-05-10T15:43:31;0.50;;;0.50;;
28481;SDS011;15703;49.588;6.260;2023-05-10T15:48:54;1.02;;;0.60;;
28481;SDS011;15703;49.588;6.260;2023-05-10T15:59:12;0.68;;;0.50;;
28481;SDS011;15703;49.588;6.260;2023-05-10T16:01:40;0.30;;;0.30;;
28481;SDS011;15703;49.588;6.260;2023-05-10T16:04:34;0.95;;;0.40;;
28481;SDS011;15703;49.588;6.260;2023-05-10T16:09:45;1.70;;;0.68;;
28481;SDS011;15703;49.588;6.260;2023-05-10T16:12:22;2.05;;;0.60;;
28481;SDS011;15703;49.588;6.260;2023-05-10T16:15:05;1.05;;;0.40;;
28481;SDS011;15703;49.588;6.260;2023-05-10T16:22:27;0.98;;;0.63;;
28481;SDS011;15703;49.588;6.260;2023-05-10T16:24:59;1.48;;;0.50;;
28481;SDS011;15703;49.588;6.260;2023-05-10T16:27:42;0.93;;;0.50;;
28481;SDS011;15703;49.588;6.260;2023-05-10T16:30:11;0.90;;;0.52;;
28481;SDS011;15703;49.588;6.260;2023-05-10T16:33:02;1.48;;;0.70;;
28481;SDS011;15703;49.588;6.260;2023-05-10T16:35:25;1.55;;;0.57;;
28481;SDS011;15703;49.588;6.260;2023-05-10T16:37:50;0.45;;;0.45;;
28481;SDS011;15703;49.588;6.260;2023-05-10T16:40:42;1.58;;;0.50;;
28481;SDS011;15703;49.588;6.260;2023-05-10T16:43:05;0.50;;;0.50;;
28481;SDS011;15703;49.588;6.260;2023-05-10T16:45:29;0.90;;;0.73;;
28481;SDS011;15703;49.588;6.260;2023-05-10T16:47:53;0.63;;;0.60;;
28481;SDS011;15703;49.588;6.260;2023-05-10T16:50:16;0.68;;;0.68;;
28481;SDS011;15703;49.588;6.260;2023-05-10T16:52:38;2.63;;;1.00;;
28481;SDS011;15703;49.588;6.260;2023-05-10T16:55:01;1.67;;;0.70;;
28481;SDS011;15703;49.588;6.260;2023-05-10T16:57:24;0.63;;;0.60;;
28481;SDS011;15703;49.588;6.260;2023-05-10T16:59:47;3.78;;;0.80;;
28481;SDS011;15703;49.588;6.260;2023-05-10T17:02:09;1.43;;;0.70;;
28481;SDS011;15703;49.588;6.260;2023-05-10T17:04:36;1.52;;;0.52;;
28481;SDS011;15703;49.588;6.260;2023-05-10T17:06:59;0.90;;;0.82;;
28481;SDS011;15703;49.588;6.260;2023-05-10T17:09:21;0.82;;;0.70;;
28481;SDS011;15703;49.588;6.260;2023-05-10T17:11:44;1.23;;;0.80;;
28481;SDS011;15703;49.588;6.260;2023-05-10T17:14:06;1.38;;;0.88;;
28481;SDS011;15703;49.588;6.260;2023-05-10T17:16:30;0.93;;;0.90;;
28481;SDS011;15703;49.588;6.260;2023-05-10T17:18:52;1.57;;;0.90;;
28481;SDS011;15703;49.588;6.260;2023-05-10T17:21:15;3.57;;;1.13;;
28481;SDS011;15703;49.588;6.260;2023-05-10T17:23:37;3.77;;;1.47;;
28481;SDS011;15703;49.588;6.260;2023-05-10T17:26:02;1.83;;;1.27;;
28481;SDS011;15703;49.588;6.260;2023-05-10T17:28:26;6.97;;;1.60;;
28481;SDS011;15703;49.588;6.260;2023-05-10T17:31:02;4.97;;;1.20;;
28481;SDS011;15703;49.588;6.260;2023-05-10T17:33:28;1.93;;;0.90;;
28481;SDS011;15703;49.588;6.260;2023-05-10T17:35:54;3.27;;;1.63;;
28481;SDS011;15703;49.588;6.260;2023-05-10T17:38:18;2.27;;;1.30;;
28481;SDS011;15703;49.588;6.260;2023-05-10T17:40:44;2.37;;;1.33;;
28481;SDS011;15703;49.588;6.260;2023-05-10T17:43:07;1.57;;;1.20;;
28481;SDS011;15703;49.588;6.260;2023-05-10T17:45:29;2.33;;;1.03;;
28481;SDS011;15703;49.588;6.260;2023-05-10T17:47:52;2.80;;;1.30;;
28481;SDS011;15703;49.588;6.260;2023-05-10T17:50:14;2.33;;;1.00;;
28481;SDS011;15703;49.588;6.260;2023-05-10T17:52:39;2.07;;;1.10;;
28481;SDS011;15703;49.588;6.260;2023-05-10T17:55:01;1.37;;;1.27;;
28481;SDS011;15703;49.588;6.260;2023-05-10T17:57:24;2.37;;;1.20;;
28481;SDS011;15703;49.588;6.260;2023-05-10T17:59:47;2.37;;;1.50;;
28481;SDS011;15703;49.588;6.260;2023-05-10T18:02:16;1.80;;;1.40;;
28481;SDS011;15703;49.588;6.260;2023-05-10T18:04:39;1.50;;;1.40;;
28481;SDS011;15703;49.588;6.260;2023-05-10T18:07:02;4.40;;;1.60;;
28481;SDS011;15703;49.588;6.260;2023-05-10T18:09:24;4.03;;;1.97;;
28481;SDS011;15703;49.588;6.260;2023-05-10T18:11:47;2.13;;;1.90;;
28481;SDS011;15703;49.588;6.260;2023-05-10T18:14:10;1.70;;;1.40;;
28481;SDS011;15703;49.588;6.260;2023-05-10T18:16:33;2.50;;;1.40;;
28481;SDS011;15703;49.588;6.260;2023-05-10T18:18:59;1.07;;;1.03;;
28481;SDS011;15703;49.588;6.260;2023-05-10T18:21:25;1.60;;;1.20;;
28481;SDS011;15703;49.588;6.260;2023-05-10T18:23:47;1.53;;;1.30;;
28481;SDS011;15703;49.588;6.260;2023-05-10T18:26:10;1.37;;;1.27;;
28481;SDS011;15703;49.588;6.260;2023-05-10T18:28:33;2.67;;;1.40;;
28481;SDS011;15703;49.588;6.260;2023-05-10T18:30:56;1.43;;;1.33;;
28481;SDS011;15703;49.588;6.260;2023-05-10T18:33:18;1.47;;;1.30;;
28481;SDS011;15703;49.588;6.260;2023-05-10T18:35:41;1.43;;;1.33;;
28481;SDS011;15703;49.588;6.260;2023-05-10T18:38:19;1.80;;;1.60;;
28481;SDS011;15703;49.588;6.260;2023-05-10T18:40:42;1.90;;;1.60;;
28481;SDS011;15703;49.588;6.260;2023-05-10T18:43:04;2.60;;;1.30;;
28481;SDS011;15703;49.588;6.260;2023-05-10T18:45:27;3.67;;;1.50;;
28481;SDS011;15703;49.588;6.260;2023-05-10T18:47:52;1.43;;;1.40;;
28481;SDS011;15703;49.588;6.260;2023-05-10T18:50:18;1.97;;;1.70;;
28481;SDS011;15703;49.588;6.260;2023-05-10T18:52:41;2.03;;;1.53;;
28481;SDS011;15703;49.588;6.260;2023-05-10T18:55:04;1.90;;;1.80;;
28481;SDS011;15703;49.588;6.260;2023-05-10T18:57:26;4.10;;;1.80;;
28481;SDS011;15703;49.588;6.260;2023-05-10T18:59:49;6.10;;;1.90;;
28481;SDS011;15703;49.588;6.260;2023-05-10T19:02:12;1.83;;;1.70;;
28481;SDS011;15703;49.588;6.260;2023-05-10T19:04:34;2.00;;;1.90;;
28481;SDS011;15703;49.588;6.260;2023-05-10T19:06:57;3.00;;;2.40;;
28481;SDS011;15703;49.588;6.260;2023-05-10T19:09:22;1.80;;;1.70;;
28481;SDS011;15703;49.588;6.260;2023-05-10T19:11:44;2.30;;;2.00;;
28481;SDS011;15703;49.588;6.260;2023-05-10T19:14:08;2.73;;;2.23;;